Time;durP1;ratioP1;P1;durP2;ratioP2;P2;SDS_P1;SDS_P2;PMS_P1;PMS_P2;Temp;Humidity;BMP_temperature;BMP_pressure;BME280_temperature;BME280_humidity;BME280_pressure;Samples;Min_cycle;Max_cycle;Signal;HPM_P1;HPM_P2
2022/11/02 00:00:30;;;;;;;7.78;1.70;;;;;;;12.56;79.51;101293.72;5037759;28;20104;-77
2022/11/02 00:02:58;;;;;;;10.75;1.80;;;;;;;12.60;79.53;101301.16;5037904;28;20095;-77
2022/11/02 00:05:25;;;;;;;6.07;1.70;;;;;;;12.58;79.27;101303.06;5030924;28;20040;-76
2022/11/02 00:07:51;;;;;;;8.43;1.45;;;;;;;12.62;81.19;101309.66;5046031;28;20055;-76
2022/11/02 00:10:17;;;;;;;9.32;1.75;;;;;;;12.53;81.80;101292.19;5042474;28;20025;-76
2022/11/02 00:12:43;;;;;;;6.05;1.30;;;;;;;12.58;81.64;101282.25;5031368;28;20084;-76
2022/11/02 00:15:09;;;;;;;8.25;1.83;;;;;;;12.49;82.62;101294.22;5044225;28;20052;-75
2022/11/02 00:17:36;;;;;;;9.77;1.45;;;;;;;12.47;82.96;101305.72;5043251;28;20616;-76
2022/11/02 00:20:04;;;;;;;7.53;1.20;;;;;;;12.41;83.20;101296.63;5046006;28;20366;-76
2022/11/02 00:22:30;;;;;;;10.40;1.70;;;;;;;12.40;83.05;101291.56;5045458;28;20028;-76
2022/11/02 00:24:56;;;;;;;12.20;1.52;;;;;;;12.39;82.19;101295.13;5033059;28;20216;-76
2022/11/02 00:27:22;;;;;;;5.00;1.30;;;;;;;12.33;82.71;101287.78;5032988;28;20461;-76
2022/11/02 00:29:48;;;;;;;9.38;1.42;;;;;;;12.34;83.13;101294.66;5044381;28;20032;-77
2022/11/02 00:32:13;;;;;;;6.55;1.40;;;;;;;12.23;83.04;101285.97;5047146;28;20027;-76
2022/11/02 00:34:38;;;;;;;8.95;1.45;;;;;;;12.28;83.35;101289.97;5028033;28;20053;-77
2022/11/02 00:37:04;;;;;;;5.40;1.75;;;;;;;12.25;83.39;101290.22;5028092;28;20040;-76
2022/11/02 00:39:30;;;;;;;8.30;1.38;;;;;;;12.27;83.71;101298.69;5010734;28;20053;-76
2022/11/02 00:41:55;;;;;;;7.75;1.67;;;;;;;12.20;83.95;101283.59;5017778;28;20061;-77
2022/11/02 00:44:20;;;;;;;7.45;1.38;;;;;;;12.24;83.09;101289.38;5009040;28;20026;-76
2022/11/02 00:46:46;;;;;;;6.85;1.45;;;;;;;12.25;83.01;101290.22;5028275;28;20029;-77
2022/11/02 00:49:11;;;;;;;6.80;1.63;;;;;;;12.28;82.54;101292.56;5027093;28;20021;-77
2022/11/02 00:51:36;;;;;;;7.68;1.63;;;;;;;12.28;82.34;101279.56;5011129;28;20055;-80
2022/11/02 00:54:02;;;;;;;5.55;1.27;;;;;;;12.28;82.09;101283.00;5015489;28;20025;-76
2022/11/02 00:56:27;;;;;;;7.35;1.45;;;;;;;12.24;82.20;101278.97;5023691;28;20029;-76
2022/11/02 00:58:53;;;;;;;5.93;1.58;;;;;;;12.26;82.62;101273.66;5022983;28;20433;-76
2022/11/02 01:01:18;;;;;;;6.68;1.33;;;;;;;12.22;82.86;101286.91;5022824;28;20028;-76
2022/11/02 01:03:43;;;;;;;6.38;1.65;;;;;;;12.22;82.70;101281.72;5029175;28;20568;-76
2022/11/02 01:06:16;;;;;;;8.82;1.48;;;;;;;12.26;83.40;101302.25;5007823;28;20026;-76
2022/11/02 01:08:42;;;;;;;6.95;1.60;;;;;;;12.19;83.32;101292.34;5017946;28;20042;-76
2022/11/02 01:11:16;;;;;;;7.43;1.52;;;;;;;12.22;82.97;101302.53;5025970;28;20462;-76
2022/11/02 01:13:42;;;;;;;6.53;1.58;;;;;;;12.14;82.28;101299.69;5008073;28;20084;-76
2022/11/02 01:16:08;;;;;;;9.18;1.60;;;;;;;12.09;82.52;101295.81;5021973;28;20468;-76
2022/11/02 01:18:33;;;;;;;8.85;1.65;;;;;;;12.16;82.44;101308.22;5007740;28;20029;-77
2022/11/02 01:20:59;;;;;;;3.22;1.20;;;;;;;12.12;82.26;101309.41;5013152;28;20458;-77
2022/11/02 01:23:25;;;;;;;4.75;1.50;;;;;;;12.15;82.07;101311.75;5021626;28;20409;-76
2022/11/02 01:25:51;;;;;;;9.00;1.80;;;;;;;12.12;82.25;101316.38;5014984;28;20041;-78
2022/11/02 01:28:16;;;;;;;7.47;1.48;;;;;;;12.12;81.76;101317.22;5007035;28;20048;-76
2022/11/02 01:30:42;;;;;;;6.60;1.35;;;;;;;12.07;81.87;101324.53;5027474;28;20386;-77
2022/11/02 01:33:07;;;;;;;6.93;1.27;;;;;;;12.09;82.00;101327.84;5021648;28;20370;-76
2022/11/02 01:35:35;;;;;;;8.90;1.48;;;;;;;12.08;81.28;101321.00;5043477;28;20495;-76
2022/11/02 01:38:00;;;;;;;6.60;1.75;;;;;;;12.09;81.97;101340.84;5046527;28;20025;-77
2022/11/02 01:40:25;;;;;;;5.93;1.33;;;;;;;12.12;82.28;101369.22;5048091;28;20032;-77
2022/11/02 01:42:51;;;;;;;5.00;1.10;;;;;;;12.03;77.02;101364.72;5033303;28;20108;-78
2022/11/02 01:45:16;;;;;;;3.67;0.80;;;;;;;11.91;75.36;101373.50;5040472;28;20025;-78
2022/11/02 01:47:46;;;;;;;2.90;0.60;;;;;;;11.75;75.13;101349.63;5045683;28;20029;-77
2022/11/02 01:50:17;;;;;;;3.47;0.73;;;;;;;11.64;74.80;101343.50;5046628;28;20033;-77
2022/11/02 01:52:42;;;;;;;3.55;0.60;;;;;;;11.55;74.82;101365.00;5047799;28;20387;-77
2022/11/02 01:55:11;;;;;;;2.42;0.57;;;;;;;11.57;74.17;101372.66;5046340;28;20658;-77
2022/11/02 01:57:41;;;;;;;;;;;;;;;11.60;76.60;101362.88;5043482;28;20492;-77
2022/11/02 02:00:10;;;;;;;3.17;0.68;;;;;;;11.41;74.96;101362.59;5039413;28;19978;-76
2022/11/02 02:02:43;;;;;;;4.15;0.77;;;;;;;11.36;75.35;101369.94;5045168;28;20111;-77
2022/11/02 02:05:12;;;;;;;3.67;0.80;;;;;;;11.32;76.20;101358.13;5042010;28;20025;-77
2022/11/02 02:07:38;;;;;;;3.38;0.88;;;;;;;11.30;76.79;101349.66;5040178;28;20171;-77
2022/11/02 02:10:06;;;;;;;5.25;0.77;;;;;;;11.25;76.93;101356.94;5045822;28;20066;-77
2022/11/02 02:12:32;;;;;;;4.43;0.93;;;;;;;11.28;76.60;101351.50;5045392;28;20051;-78
2022/11/02 02:14:58;;;;;;;3.53;0.70;;;;;;;11.24;77.57;101344.88;5045313;28;20119;-78
2022/11/02 02:17:36;;;;;;;6.68;0.90;;;;;;;11.24;77.70;101344.88;5043018;28;20037;-77
2022/11/02 02:20:10;;;;;;;3.67;0.90;;;;;;;11.22;77.88;101337.22;5039153;28;20496;-78
2022/11/02 02:22:41;;;;;;;2.80;0.70;;;;;;;11.21;78.65;101339.94;5034195;28;20082;-77
2022/11/02 02:25:44;;;;;;;4.35;0.80;;;;;;;11.16;78.16;101351.50;5046654;28;20260;-77
2022/11/02 02:28:20;;;;;;;5.57;1.08;;;;;;;11.09;78.61;101342.53;5040567;28;20771;-80
2022/11/02 02:30:50;;;;;;;5.25;0.90;;;;;;;11.09;79.04;101334.75;5035709;28;20033;-77
2022/11/02 02:33:37;;;;;;;6.10;1.00;;;;;;;11.12;79.03;101344.88;5035874;28;20072;-77
2022/11/02 02:36:15;;;;;;;6.30;1.23;;;;;;;11.08;79.07;101335.69;5038775;28;20025;-76
2022/11/02 02:38:47;;;;;;;7.72;1.23;;;;;;;11.12;79.48;101336.25;5043100;28;20035;-77
2022/11/02 02:41:40;;;;;;;9.05;1.42;;;;;;;11.13;80.08;101332.75;5032827;28;20123;-79
2022/11/02 02:44:15;;;;;;;5.07;1.20;;;;;;;11.11;80.19;101330.25;5044097;28;20056;-77
2022/11/02 02:46:47;;;;;;;7.90;1.88;;;;;;;11.13;80.62;101328.38;5047036;28;20025;-76
2022/11/02 02:49:21;;;;;;;8.52;2.97;;;;;;;11.13;80.67;101338.75;5046106;28;20117;-77
2022/11/02 02:51:47;;;;;;;5.57;1.70;;;;;;;11.12;80.76;101337.09;5043466;28;20036;-77
2022/11/02 02:54:20;;;;;;;6.18;1.20;;;;;;;11.16;79.90;101342.88;5033142;28;20025;-77
2022/11/02 02:56:50;;;;;;;8.70;1.38;;;;;;;11.16;80.57;101348.06;5031778;28;20040;-77
2022/11/02 02:59:25;;;;;;;3.80;1.10;;;;;;;11.09;79.82;101344.28;5041775;28;20026;-77
2022/11/02 03:01:53;;;;;;;6.03;1.13;;;;;;;11.10;79.98;101338.16;5028999;28;20053;-77
2022/11/02 03:04:18;;;;;;;5.03;0.90;;;;;;;11.11;79.66;101340.63;5037298;28;20029;-77
2022/11/02 03:06:48;;;;;;;9.85;1.10;;;;;;;11.14;79.05;101348.19;5034648;28;20033;-77
2022/11/02 03:09:44;;;;;;;4.32;1.00;;;;;;;11.16;79.75;101353.28;5043894;28;20580;-77
2022/11/02 03:12:34;;;;;;;6.43;1.10;;;;;;;11.16;79.74;101348.91;5035611;28;20256;-77
2022/11/02 03:15:12;;;;;;;7.20;1.48;;;;;;;11.11;79.59;101345.81;5057483;28;20359;-77
2022/11/02 03:17:49;;;;;;;7.87;1.30;;;;;;;11.16;79.66;101351.50;5026838;28;20025;-77
2022/11/02 03:20:21;;;;;;;9.07;1.35;;;;;;;11.17;79.05;101347.94;5039626;28;20037;-76
2022/11/02 03:22:52;;;;;;;8.40;1.42;;;;;;;11.16;78.25;101348.91;5036693;28;20039;-77
2022/11/02 03:25:25;;;;;;;4.57;1.20;;;;;;;11.15;78.46;101342.06;5040967;28;20025;-77
2022/11/02 03:28:03;;;;;;;8.95;1.38;;;;;;;11.17;78.30;101347.94;5035652;28;20139;-76
2022/11/02 03:30:36;;;;;;;6.18;1.35;;;;;;;11.13;78.92;101356.94;5034627;28;20025;-76
2022/11/02 03:33:32;;;;;;;7.20;1.08;;;;;;;11.14;80.77;101358.59;5026262;28;20024;-76
2022/11/02 03:36:07;;;;;;;4.80;1.23;;;;;;;11.11;81.56;101356.22;5031322;28;20025;-76
2022/11/02 03:38:57;;;;;;;6.53;0.90;;;;;;;11.08;81.45;101356.44;5040567;28;20078;-76
2022/11/02 03:41:24;;;;;;;8.18;1.13;;;;;;;10.94;80.87;101343.66;5038364;28;20044;-76
2022/11/02 03:43:57;;;;;;;4.57;1.15;;;;;;;10.90;81.27;101348.28;5043447;28;20039;-77
2022/11/02 03:46:23;;;;;;;5.05;1.33;;;;;;;10.95;80.91;101358.28;5039385;28;20033;-76
2022/11/02 03:48:51;;;;;;;10.07;1.83;;;;;;;10.89;81.80;101363.94;5044184;28;20032;-77
2022/11/02 03:51:22;;;;;;;9.02;1.60;;;;;;;10.91;80.79;101369.88;5042610;28;20028;-78
2022/11/02 03:54:08;;;;;;;7.47;1.60;;;;;;;10.95;80.31;101370.44;5039530;28;20036;-76
2022/11/02 03:56:41;;;;;;;10.85;1.65;;;;;;;10.95;80.36;101376.47;5038106;28;20028;-76
2022/11/02 03:59:07;;;;;;;7.70;1.23;;;;;;;10.94;79.65;101369.63;5025496;28;20033;-77
2022/11/02 04:01:39;;;;;;;5.45;1.02;;;;;;;10.99;80.58;101383.09;5043242;28;20027;-79
2022/11/02 04:04:04;;;;;;;7.72;1.20;;;;;;;10.96;80.25;101367.75;5040108;28;20032;-76
2022/11/02 04:06:31;;;;;;;10.38;2.03;;;;;;;10.95;80.03;101386.84;5033879;28;20469;-80
2022/11/02 04:08:56;;;;;;;8.70;1.35;;;;;;;10.90;79.55;101384.63;5044927;28;20029;-76
2022/11/02 04:19:26;;;;;;;9.27;2.38;;;;;;;10.92;79.88;101396.63;5038807;28;20043;-77
2022/11/02 04:19:35;;;;;;;10.55;1.95;;;;;;;10.93;79.29;101393.94;5031126;28;20094;-77
2022/11/02 04:27:28;;;;;;;7.05;1.75;;;;;;;10.89;78.73;101402.88;5035555;28;20043;-77
2022/11/02 04:29:53;;;;;;;10.13;1.67;;;;;;;10.96;78.85;101414.47;5044681;28;20036;-76
2022/11/02 04:35:04;;;;;;;9.32;1.50;;;;;;;10.98;79.10;101433.34;5035702;28;20168;-76
2022/11/02 04:40:13;;;;;;;9.30;2.08;;;;;;;11.04;79.01;101438.09;5043100;28;20051;-76
2022/11/02 04:42:38;;;;;;;11.98;1.80;;;;;;;11.05;79.92;101442.34;5042424;28;20537;-78
2022/11/02 04:45:04;;;;;;;9.48;1.90;;;;;;;11.04;79.89;101443.28;5041035;28;20487;-78
2022/11/02 04:47:29;;;;;;;8.85;1.67;;;;;;;11.03;79.45;101457.19;5056033;28;20025;-77
2022/11/02 04:49:55;;;;;;;11.07;2.00;;;;;;;11.02;79.14;101460.75;5037358;28;20858;-77
2022/11/02 04:52:20;;;;;;;7.18;1.85;;;;;;;11.00;79.48;101473.00;5032018;28;20073;-77
2022/11/02 04:54:45;;;;;;;8.07;1.45;;;;;;;11.00;79.72;101467.78;5032893;28;20021;-77
2022/11/02 04:57:11;;;;;;;10.05;1.95;;;;;;;11.00;79.36;101475.56;5046378;28;20021;-78
2022/11/02 04:59:36;;;;;;;8.55;1.38;;;;;;;11.04;79.19;101474.44;5035064;28;20369;-76
2022/11/02 05:02:01;;;;;;;11.32;1.55;;;;;;;11.06;78.65;101476.91;5027206;28;20061;-76
2022/11/02 05:04:27;;;;;;;10.50;1.98;;;;;;;11.04;79.02;101478.78;5035371;28;20470;-78
2022/11/02 05:06:52;;;;;;;8.82;1.70;;;;;;;11.07;79.18;101484.59;5032466;28;20120;-75
2022/11/02 05:09:18;;;;;;;9.88;1.55;;;;;;;11.05;79.81;101496.03;5038125;28;20458;-76
2022/11/02 05:11:43;;;;;;;10.57;2.05;;;;;;;11.06;78.99;101493.31;5045163;28;20374;-75
2022/11/02 05:14:08;;;;;;;9.90;2.05;;;;;;;11.07;79.55;101500.19;5031140;28;20021;-75
2022/11/02 05:16:34;;;;;;;8.55;1.90;;;;;;;11.06;79.77;101508.88;5023077;28;20065;-76
2022/11/02 05:19:00;;;;;;;10.73;1.42;;;;;;;11.05;79.84;101502.03;5031981;28;20500;-76
2022/11/02 05:21:25;;;;;;;11.27;1.70;;;;;;;11.07;79.10;101505.38;5044464;28;20058;-75
2022/11/02 05:23:51;;;;;;;7.40;1.65;;;;;;;11.07;78.68;101509.72;5051509;28;20024;-76
2022/11/02 05:26:16;;;;;;;8.38;1.33;;;;;;;11.04;79.43;101518.56;5042656;28;20028;-77
2022/11/02 05:28:42;;;;;;;7.40;1.52;;;;;;;10.95;79.43;101501.03;5037672;28;20462;-77
2022/11/02 05:31:07;;;;;;;11.93;1.83;;;;;;;10.99;79.58;101512.88;5037096;28;20456;-79
2022/11/02 05:33:33;;;;;;;10.27;1.92;;;;;;;11.04;79.39;101521.16;5046711;28;20497;-77
2022/11/02 05:35:59;;;;;;;8.13;1.80;;;;;;;11.08;79.18;101522.59;5051275;28;20039;-76
2022/11/02 05:38:26;;;;;;;7.80;1.63;;;;;;;11.04;79.48;101536.72;5047268;28;20475;-76
2022/11/02 05:40:57;;;;;;;9.15;1.83;;;;;;;11.03;79.50;101532.47;5045431;28;20484;-76
2022/11/02 05:43:23;;;;;;;9.95;1.80;;;;;;;11.02;79.92;101543.81;5046979;28;20025;-75
2022/11/02 05:46:07;;;;;;;12.05;2.13;;;;;;;10.98;79.35;101539.75;5048192;28;20017;-76
2022/11/02 05:48:32;;;;;;;11.07;1.73;;;;;;;10.94;79.33;101546.09;5046010;28;20021;-77
2022/11/02 05:51:01;;;;;;;8.63;1.90;;;;;;;10.95;79.15;101537.38;5044237;28;20036;-76
2022/11/02 05:53:30;;;;;;;7.40;1.75;;;;;;;10.92;79.59;101558.38;5037798;28;20047;-75
2022/11/02 05:55:57;;;;;;;12.32;1.95;;;;;;;10.90;79.40;101558.50;5046148;28;20074;-75
2022/11/02 05:58:23;;;;;;;5.43;1.45;;;;;;;10.82;80.00;101557.38;5042706;28;20405;-76
2022/11/02 06:00:48;;;;;;;7.68;1.60;;;;;;;10.76;79.67;101558.63;5045908;28;20468;-76
2022/11/02 06:03:14;;;;;;;5.97;1.42;;;;;;;10.75;79.67;101571.72;5045935;28;20057;-74
2022/11/02 06:05:39;;;;;;;9.00;1.48;;;;;;;10.78;79.85;101579.28;5047781;28;20040;-76
2022/11/02 06:08:05;;;;;;;7.22;1.48;;;;;;;10.76;79.87;101583.75;5033552;28;20033;-75
2022/11/02 06:10:30;;;;;;;8.77;1.45;;;;;;;10.74;80.33;101577.84;5036344;28;20056;-76
2022/11/02 06:13:01;;;;;;;8.55;1.50;;;;;;;10.73;80.30;101597.78;5034567;28;20111;-77
2022/11/02 06:15:29;;;;;;;6.63;1.45;;;;;;;10.69;79.68;101592.91;5046032;28;20071;-77
2022/11/02 06:17:54;;;;;;;11.70;1.35;;;;;;;10.64;79.97;101586.25;5042609;28;20044;-77
2022/11/02 06:20:20;;;;;;;13.40;2.85;;;;;;;10.69;79.60;101598.09;5037988;28;20029;-77
2022/11/02 06:22:46;;;;;;;9.02;1.92;;;;;;;10.67;79.73;101615.50;5041560;28;20037;-77
2022/11/02 06:25:12;;;;;;;7.28;1.58;;;;;;;10.63;80.01;101618.34;5037425;28;20028;-76
2022/11/02 06:27:38;;;;;;;8.80;1.73;;;;;;;10.56;79.71;101614.50;5036600;28;20021;-77
2022/11/02 06:30:04;;;;;;;9.68;1.60;;;;;;;10.56;80.62;101630.06;5036019;28;20522;-76
2022/11/02 06:32:30;;;;;;;8.15;1.63;;;;;;;10.50;80.28;101640.03;5039204;28;20060;-76
2022/11/02 06:34:55;;;;;;;8.35;1.70;;;;;;;10.48;79.91;101637.53;5026533;28;20522;-77
2022/11/02 06:37:21;;;;;;;10.00;1.55;;;;;;;10.45;80.55;101645.53;5040818;28;20052;-77
2022/11/02 06:39:47;;;;;;;10.10;1.40;;;;;;;10.37;80.80;101647.81;5039664;28;20168;-76
2022/11/02 06:42:12;;;;;;;17.10;2.05;;;;;;;10.40;81.39;101655.38;5044259;28;20529;-77
2022/11/02 06:44:38;;;;;;;6.47;1.30;;;;;;;10.32;80.94;101649.88;5045754;28;20048;-77
2022/11/02 06:47:04;;;;;;;7.05;1.40;;;;;;;10.30;81.10;101664.72;5044352;28;20408;-77
2022/11/02 06:49:29;;;;;;;9.05;1.75;;;;;;;10.30;81.17;101680.28;5038899;28;20049;-77
2022/11/02 06:51:55;;;;;;;11.52;1.95;;;;;;;10.26;81.00;101681.41;5049337;28;20054;-77
2022/11/02 06:54:20;;;;;;;10.95;1.67;;;;;;;10.25;81.14;101692.72;5049181;28;20052;-77
2022/11/02 06:56:45;;;;;;;9.00;1.35;;;;;;;10.18;81.81;101691.44;5043542;28;20033;-76
2022/11/02 06:59:11;;;;;;;7.05;1.30;;;;;;;10.17;81.81;101695.78;5037018;28;20037;-77
2022/11/02 07:01:36;;;;;;;7.68;1.40;;;;;;;10.13;81.85;101698.69;5057850;28;20428;-76
2022/11/02 07:04:02;;;;;;;6.18;1.23;;;;;;;10.15;81.79;101714.94;5045170;28;20036;-77
2022/11/02 07:06:27;;;;;;;8.82;1.45;;;;;;;10.14;81.91;101721.06;5041368;28;20029;-76
2022/11/02 07:08:53;;;;;;;10.70;1.73;;;;;;;10.10;81.86;101723.88;5038651;28;20033;-77
2022/11/02 07:11:22;;;;;;;7.57;1.63;;;;;;;10.09;81.96;101724.81;5041708;28;20112;-78
2022/11/02 07:13:47;;;;;;;10.75;1.90;;;;;;;10.10;81.84;101746.38;5037415;28;20029;-76
2022/11/02 07:16:13;;;;;;;11.63;1.63;;;;;;;10.05;82.63;101738.91;5039987;28;20647;-77
2022/11/02 07:18:39;;;;;;;10.95;1.88;;;;;;;10.09;82.05;101750.72;5034957;28;20086;-77
2022/11/02 07:21:05;;;;;;;7.15;1.52;;;;;;;10.06;82.14;101750.91;5043586;28;20106;-76
2022/11/02 07:23:30;;;;;;;11.65;2.03;;;;;;;10.04;82.20;101751.97;5033118;28;20458;-76
2022/11/02 07:25:56;;;;;;;10.05;1.98;;;;;;;10.05;82.43;101754.44;5041607;28;20052;-77
2022/11/02 07:28:21;;;;;;;5.35;1.30;;;;;;;10.08;82.37;101764.59;5032119;28;20026;-76
2022/11/02 07:30:47;;;;;;;13.15;2.47;;;;;;;10.07;82.45;101765.53;5043573;28;20345;-76
2022/11/02 07:33:12;;;;;;;5.93;1.13;;;;;;;10.10;81.49;101786.09;5039625;28;20072;-77
2022/11/02 07:35:38;;;;;;;8.52;1.55;;;;;;;10.07;81.90;101775.91;5047506;28;20048;-77
2022/11/02 07:38:05;;;;;;;6.85;1.30;;;;;;;10.10;82.74;101783.50;5037820;28;20047;-76
2022/11/02 07:40:32;;;;;;;9.07;1.60;;;;;;;10.09;81.66;101781.84;5040998;28;20018;-77
2022/11/02 07:42:58;;;;;;;9.75;1.75;;;;;;;10.06;81.98;101776.84;5033120;28;20496;-77
2022/11/02 07:45:24;;;;;;;6.25;1.45;;;;;;;10.11;82.95;101794.69;5038808;28;20020;-77
2022/11/02 07:47:50;;;;;;;9.80;1.45;;;;;;;10.09;82.61;101787.03;5035857;28;20383;-77
2022/11/02 07:50:21;;;;;;;7.55;1.25;;;;;;;10.09;81.97;101801.72;5029345;28;20029;-78
2022/11/02 07:52:52;;;;;;;10.07;1.63;;;;;;;10.13;81.78;101797.19;5038093;28;20133;-76
2022/11/02 07:55:20;;;;;;;8.00;1.70;;;;;;;10.13;81.48;101799.78;5038028;28;20492;-77
2022/11/02 07:58:12;;;;;;;8.73;1.83;;;;;;;10.17;82.09;101815.03;5042571;28;20109;-77
2022/11/02 08:00:39;;;;;;;9.23;1.50;;;;;;;10.16;81.43;101815.13;5042870;28;20496;-77
2022/11/02 08:03:06;;;;;;;5.55;1.42;;;;;;;10.20;82.06;101814.00;5037317;28;20043;-77
2022/11/02 08:05:35;;;;;;;14.05;1.65;;;;;;;10.20;81.68;101820.00;5041012;28;20545;-77
2022/11/02 08:08:02;;;;;;;6.25;1.10;;;;;;;10.22;81.97;101814.75;5042801;28;20127;-79
2022/11/02 08:10:30;;;;;;;8.95;1.42;;;;;;;10.25;81.29;101822.34;5043814;28;20029;-76
2022/11/02 08:12:56;;;;;;;13.20;1.65;;;;;;;10.26;81.67;101829.19;5026818;28;20064;-78
2022/11/02 08:15:21;;;;;;;3.28;1.05;;;;;;;10.29;81.92;101834.19;5045342;28;20441;-77
2022/11/02 08:17:47;;;;;;;6.78;1.60;;;;;;;10.30;81.12;101825.47;5045116;28;20098;-77
2022/11/02 08:20:12;;;;;;;7.55;1.60;;;;;;;10.33;81.36;101836.50;5031948;28;20410;-77
2022/11/02 08:22:39;;;;;;;8.60;1.50;;;;;;;10.37;80.93;101831.91;5039702;28;20111;-77
2022/11/02 08:25:05;;;;;;;4.63;1.02;;;;;;;10.42;81.02;101844.59;5038684;28;20032;-76
2022/11/02 08:27:31;;;;;;;5.68;1.20;;;;;;;10.44;81.37;101848.78;5040083;28;20032;-76
2022/11/02 08:29:57;;;;;;;6.45;1.30;;;;;;;10.43;81.21;101836.72;5036409;28;20037;-77
2022/11/02 08:32:22;;;;;;;6.35;1.63;;;;;;;10.47;80.68;101845.97;5040766;28;20033;-77
2022/11/02 08:34:48;;;;;;;6.22;1.52;;;;;;;10.52;81.44;101856.88;5037335;28;20120;-77
2022/11/02 08:37:13;;;;;;;7.10;1.55;;;;;;;10.52;81.45;101846.50;5044226;28;20033;-77
2022/11/02 08:39:38;;;;;;;12.65;2.10;;;;;;;10.58;81.07;101840.91;5031268;28;20108;-77
2022/11/02 08:42:04;;;;;;;8.25;1.83;;;;;;;10.64;81.17;101861.25;5035225;28;20052;-76
2022/11/02 08:44:29;;;;;;;6.05;1.52;;;;;;;10.71;81.89;101872.06;5036224;28;20033;-76
2022/11/02 08:46:55;;;;;;;10.40;1.90;;;;;;;10.76;81.37;101879.56;5055805;28;20420;-77
2022/11/02 08:49:20;;;;;;;11.45;1.80;;;;;;;10.80;81.05;101887.03;5044693;28;20035;-78
2022/11/02 08:51:46;;;;;;;8.65;1.83;;;;;;;10.85;80.60;101881.56;5027130;28;20025;-77
2022/11/02 08:54:12;;;;;;;8.52;1.80;;;;;;;10.87;80.49;101880.50;5027594;28;20095;-77
2022/11/02 08:56:37;;;;;;;11.27;1.63;;;;;;;10.94;81.02;101880.94;5035322;28;20032;-80
2022/11/02 08:59:03;;;;;;;7.97;1.35;;;;;;;10.96;80.68;101886.88;5045675;28;20040;-77
2022/11/02 09:01:28;;;;;;;10.82;1.55;;;;;;;11.00;79.77;101888.31;5043085;28;20021;-76
2022/11/02 09:03:53;;;;;;;9.98;1.80;;;;;;;11.12;80.43;101903.06;5047420;28;20369;-77
2022/11/02 09:06:19;;;;;;;7.35;1.38;;;;;;;11.15;79.23;101892.50;5046010;28;20484;-77
2022/11/02 09:08:44;;;;;;;10.43;1.48;;;;;;;11.19;79.81;101882.75;5046591;28;20158;-77
2022/11/02 09:11:09;;;;;;;9.13;1.70;;;;;;;11.21;79.31;101880.03;5047313;28;20070;-77
2022/11/02 09:13:36;;;;;;;9.27;1.67;;;;;;;11.28;78.80;101886.47;5035738;28;20117;-77
2022/11/02 09:16:02;;;;;;;8.98;1.83;;;;;;;11.35;79.46;101887.72;5032901;28;20059;-77
2022/11/02 09:18:27;;;;;;;7.35;1.33;;;;;;;11.36;78.80;101884.19;5030963;28;20026;-77
2022/11/02 09:20:53;;;;;;;9.45;1.77;;;;;;;11.42;78.45;101887.22;5043737;28;20445;-78
2022/11/02 09:23:20;;;;;;;8.73;1.38;;;;;;;11.48;78.62;101888.56;5042719;28;20497;-77
2022/11/02 09:25:45;;;;;;;9.63;1.48;;;;;;;11.50;77.38;101897.06;5046322;28;20029;-78
2022/11/02 09:28:13;;;;;;;6.60;1.42;;;;;;;11.51;77.09;101898.72;5045819;28;20029;-77
2022/11/02 09:30:39;;;;;;;3.25;1.00;;;;;;;11.57;77.42;101898.31;5042355;28;20599;-77
2022/11/02 09:33:05;;;;;;;17.58;2.58;;;;;;;11.58;77.32;101905.16;5038751;28;20037;-78
2022/11/02 09:35:34;;;;;;;11.25;1.70;;;;;;;11.65;76.98;101916.81;5045768;28;20017;-77
2022/11/02 09:38:00;;;;;;;7.78;1.40;;;;;;;11.68;77.54;101916.59;5047177;28;20044;-77
2022/11/02 09:40:27;;;;;;;4.72;1.27;;;;;;;11.73;77.28;101907.66;5036474;28;20021;-80
2022/11/02 09:43:05;;;;;;;7.10;1.13;;;;;;;11.75;77.05;101917.00;5029509;28;20037;-77
2022/11/02 09:45:35;;;;;;;6.78;1.55;;;;;;;11.80;76.11;101920.09;5039792;28;20037;-77
2022/11/02 09:48:18;;;;;;;7.28;1.30;;;;;;;11.80;76.72;101925.31;5039103;28;20028;-77
2022/11/02 09:51:02;;;;;;;7.68;1.30;;;;;;;11.92;76.31;101928.84;5031794;28;20021;-77
2022/11/02 09:54:06;;;;;;;10.73;1.50;;;;;;;11.96;76.64;101927.72;5034990;28;20020;-77
2022/11/02 09:56:33;;;;;;;8.25;1.27;;;;;;;11.99;75.89;101945.72;5007495;28;20043;-80
2022/11/02 09:59:14;;;;;;;9.23;1.67;;;;;;;12.03;76.60;101954.09;5046567;28;20504;-78
2022/11/02 10:02:13;;;;;;;10.88;1.48;;;;;;;12.05;76.64;101950.47;5036375;28;20044;-77
2022/11/02 10:05:01;;;;;;;12.57;1.60;;;;;;;12.09;76.65;101946.72;5043761;28;20056;-77
2022/11/02 10:07:45;;;;;;;9.77;2.17;;;;;;;12.11;75.80;101939.66;5043714;28;20452;-77
2022/11/02 10:10:40;;;;;;;9.27;1.55;;;;;;;12.13;76.36;101942.97;5038572;28;20039;-77
2022/11/02 10:13:22;;;;;;;13.15;1.83;;;;;;;12.23;76.03;101962.19;5036548;28;20032;-77
2022/11/02 10:15:55;;;;;;;6.75;1.50;;;;;;;12.35;75.02;101962.25;5040514;28;20021;-78
2022/11/02 10:18:25;;;;;;;9.63;1.77;;;;;;;12.39;74.73;101974.13;5038975;28;20028;-77
2022/11/02 10:20:54;;;;;;;13.13;1.88;;;;;;;12.33;74.57;101953.72;5039896;28;20513;-80
2022/11/02 10:23:33;;;;;;;9.00;1.63;;;;;;;12.43;75.42;101975.56;5041557;28;20052;-79
2022/11/02 10:26:00;;;;;;;;;;;;;;;12.49;76.29;101975.09;5032454;28;20445;-77
2022/11/02 10:28:30;;;;;;;9.50;1.52;;;;;;;12.51;74.59;101973.25;5039313;28;19925;-77
2022/11/02 10:30:56;;;;;;;9.43;1.50;;;;;;;12.48;74.15;101969.06;5033615;28;20063;-77
2022/11/02 10:33:27;;;;;;;7.68;1.40;;;;;;;12.57;74.01;101977.19;5040614;28;20049;-77
2022/11/02 10:36:11;;;;;;;10.48;2.03;;;;;;;12.55;73.89;101974.66;5031086;28;20028;-77
2022/11/02 10:38:48;;;;;;;10.43;1.92;;;;;;;12.62;73.55;101981.13;5028368;28;20112;-78
2022/11/02 10:41:25;;;;;;;9.88;2.05;;;;;;;12.66;74.12;101977.34;5039922;28;20478;-77
2022/11/02 10:44:06;;;;;;;10.77;1.73;;;;;;;12.68;74.61;101970.28;5034177;28;20143;-77
2022/11/02 10:46:40;;;;;;;8.32;1.63;;;;;;;12.74;74.90;101975.03;5032976;28;20112;-78
2022/11/02 10:49:34;;;;;;;8.10;1.67;;;;;;;12.84;75.38;101982.16;5051486;28;20033;-78
2022/11/02 10:52:00;;;;;;;7.93;1.67;;;;;;;12.78;73.64;101970.41;5045408;28;20067;-79
2022/11/02 10:54:25;;;;;;;12.30;1.83;;;;;;;12.86;73.99;101977.69;5037586;28;20017;-77
2022/11/02 10:56:51;;;;;;;7.65;1.40;;;;;;;12.86;73.78;101977.69;5055682;28;20025;-78
2022/11/02 10:59:18;;;;;;;12.43;2.15;;;;;;;12.99;73.19;101983.66;5034447;28;20425;-77
2022/11/02 11:02:03;;;;;;;12.25;2.08;;;;;;;12.98;72.11;101988.03;5040066;28;20128;-77
2022/11/02 11:04:31;;;;;;;10.95;2.15;;;;;;;13.04;72.24;102002.38;5034122;28;20531;-77
2022/11/02 11:07:03;;;;;;;8.43;1.63;;;;;;;12.96;71.82;101983.84;5046206;28;20051;-77
2022/11/02 11:09:45;;;;;;;11.20;2.13;;;;;;;13.03;71.80;101990.31;5044284;28;20025;-77
2022/11/02 11:12:23;;;;;;;8.73;1.58;;;;;;;13.05;72.36;101991.00;5029078;28;20025;-78
2022/11/02 11:14:59;;;;;;;8.45;1.73;;;;;;;13.12;72.39;101989.59;5038086;28;20036;-78
2022/11/02 11:17:43;;;;;;;9.30;1.77;;;;;;;13.16;71.52;101991.06;5038186;28;20291;-77
2022/11/02 11:20:38;;;;;;;6.40;1.30;;;;;;;13.21;72.36;101994.19;5026046;28;20412;-77
2022/11/02 11:23:21;;;;;;;10.75;2.08;;;;;;;13.29;72.68;101991.81;5030258;28;20041;-77
2022/11/02 11:25:57;;;;;;;8.57;1.65;;;;;;;13.24;71.50;101983.50;5031068;28;20033;-77
2022/11/02 11:28:36;;;;;;;8.70;2.17;;;;;;;13.29;70.99;101986.63;5035772;28;20025;-77
2022/11/02 11:31:07;;;;;;;5.97;1.50;;;;;;;13.28;69.89;102000.59;5044025;28;20052;-78
2022/11/02 11:33:53;;;;;;;10.57;2.00;;;;;;;13.31;70.54;101989.13;5033569;28;20393;-77
2022/11/02 11:36:29;;;;;;;7.18;1.80;;;;;;;13.34;69.92;101988.06;5043344;28;20028;-77
2022/11/02 11:38:58;;;;;;;11.07;2.00;;;;;;;13.39;69.09;101998.97;5044773;28;20078;-77
2022/11/02 11:41:24;;;;;;;9.68;1.90;;;;;;;13.41;69.28;101979.66;5038134;28;20029;-77
2022/11/02 11:43:51;;;;;;;12.07;1.83;;;;;;;13.45;68.69;101981.09;5044028;28;20422;-77
2022/11/02 11:46:17;;;;;;;10.38;2.38;;;;;;;13.48;67.69;101985.25;5048840;28;20037;-77
2022/11/02 11:48:48;;;;;;;12.50;2.38;;;;;;;13.51;68.16;101985.00;5029202;28;20052;-77
2022/11/02 11:51:41;;;;;;;11.55;2.00;;;;;;;13.58;68.76;101975.78;5037997;28;20039;-78